sensor_id;sensor_type;location;lat;lon;timestamp;temperature;humidity
38938;DHT22;24727;51.974;20.868;2023-02-28T00:01:27;-1.90;1.00
38938;DHT22;24727;51.974;20.868;2023-02-28T00:03:53;-1.90;1.00
38938;DHT22;24727;51.974;20.868;2023-02-28T00:06:19;-2.00;1.00
38938;DHT22;24727;51.974;20.868;2023-02-28T00:08:46;-2.00;1.00
38938;DHT22;24727;51.974;20.868;2023-02-28T00:11:14;-2.00;1.00
38938;DHT22;24727;51.974;20.868;2023-02-28T00:13:42;-2.00;1.00
38938;DHT22;24727;51.974;20.868;2023-02-28T00:16:12;-1.90;1.00
38938;DHT22;24727;51.974;20.868;2023-02-28T00:18:39;-1.90;1.00
38938;DHT22;24727;51.974;20.868;2023-02-28T00:21:06;-1.90;1.00
38938;DHT22;24727;51.974;20.868;2023-02-28T00:23:34;-1.90;1.00
38938;DHT22;24727;51.974;20.868;2023-02-28T00:26:00;-2.00;1.00
38938;DHT22;24727;51.974;20.868;2023-02-28T00:28:26;-2.10;1.00
38938;DHT22;24727;51.974;20.868;2023-02-28T00:30:53;-2.20;1.00
38938;DHT22;24727;51.974;20.868;2023-02-28T00:33:19;-2.20;1.00
38938;DHT22;24727;51.974;20.868;2023-02-28T00:35:45;-2.30;1.00
38938;DHT22;24727;51.974;20.868;2023-02-28T00:38:13;-2.50;1.00
38938;DHT22;24727;51.974;20.868;2023-02-28T00:40:41;-2.60;1.00
38938;DHT22;24727;51.974;20.868;2023-02-28T00:43:08;-2.60;1.00
38938;DHT22;24727;51.974;20.868;2023-02-28T00:45:40;-2.60;1.00
38938;DHT22;24727;51.974;20.868;2023-02-28T00:48:06;-2.60;1.00
38938;DHT22;24727;51.974;20.868;2023-02-28T00:50:33;-2.60;1.00
38938;DHT22;24727;51.974;20.868;2023-02-28T00:53:00;-2.70;1.00
38938;DHT22;24727;51.974;20.868;2023-02-28T00:55:26;-2.80;1.00
38938;DHT22;24727;51.974;20.868;2023-02-28T00:57:52;-2.80;1.00
38938;DHT22;24727;51.974;20.868;2023-02-28T01:00:18;-2.90;1.00
38938;DHT22;24727;51.974;20.868;2023-02-28T01:02:45;-3.00;1.00
38938;DHT22;24727;51.974;20.868;2023-02-28T01:05:11;-3.00;1.00
38938;DHT22;24727;51.974;20.868;2023-02-28T01:07:38;-3.00;1.00
38938;DHT22;24727;51.974;20.868;2023-02-28T01:10:04;-3.00;1.00
38938;DHT22;24727;51.974;20.868;2023-02-28T01:12:30;-3.10;1.00
38938;DHT22;24727;51.974;20.868;2023-02-28T01:14:57;-3.10;1.00
38938;DHT22;24727;51.974;20.868;2023-02-28T01:17:23;-3.30;1.00
38938;DHT22;24727;51.974;20.868;2023-02-28T01:19:53;-3.30;1.00
38938;DHT22;24727;51.974;20.868;2023-02-28T01:22:20;-3.30;1.00
38938;DHT22;24727;51.974;20.868;2023-02-28T01:24:46;-3.40;1.00
38938;DHT22;24727;51.974;20.868;2023-02-28T01:27:12;-3.50;1.00
38938;DHT22;24727;51.974;20.868;2023-02-28T01:29:39;-3.60;1.00
38938;DHT22;24727;51.974;20.868;2023-02-28T01:32:05;-3.70;1.00
38938;DHT22;24727;51.974;20.868;2023-02-28T01:34:31;-3.70;1.00
38938;DHT22;24727;51.974;20.868;2023-02-28T01:36:57;-3.80;1.00
38938;DHT22;24727;51.974;20.868;2023-02-28T01:39:26;-3.90;1.00
38938;DHT22;24727;51.974;20.868;2023-02-28T01:41:52;-4.00;1.00
38938;DHT22;24727;51.974;20.868;2023-02-28T01:47:22;-4.10;1.00
38938;DHT22;24727;51.974;20.868;2023-02-28T01:49:49;-4.20;1.00
38938;DHT22;24727;51.974;20.868;2023-02-28T01:52:18;-4.20;1.00
38938;DHT22;24727;51.974;20.868;2023-02-28T01:54:52;-4.30;1.00
38938;DHT22;24727;51.974;20.868;2023-02-28T01:57:28;-4.30;1.00
38938;DHT22;24727;51.974;20.868;2023-02-28T01:59:59;-4.20;1.00
38938;DHT22;24727;51.974;20.868;2023-02-28T02:02:27;-4.30;1.00
38938;DHT22;24727;51.974;20.868;2023-02-28T02:05:00;-4.30;1.00
38938;DHT22;24727;51.974;20.868;2023-02-28T02:07:32;-4.30;1.00
38938;DHT22;24727;51.974;20.868;2023-02-28T02:10:10;-4.30;1.00
38938;DHT22;24727;51.974;20.868;2023-02-28T02:15:22;-4.40;1.00
38938;DHT22;24727;51.974;20.868;2023-02-28T02:17:53;-4.30;1.00
38938;DHT22;24727;51.974;20.868;2023-02-28T02:21:13;-4.30;1.00
38938;DHT22;24727;51.974;20.868;2023-02-28T02:28:41;-4.50;1.00
38938;DHT22;24727;51.974;20.868;2023-02-28T02:34:26;-4.60;1.00
38938;DHT22;24727;51.974;20.868;2023-02-28T02:37:15;-4.60;1.00
38938;DHT22;24727;51.974;20.868;2023-02-28T02:40:08;-4.60;1.00
38938;DHT22;24727;51.974;20.868;2023-02-28T02:45:15;-4.70;1.00
38938;DHT22;24727;51.974;20.868;2023-02-28T02:47:43;-4.70;1.00
38938;DHT22;24727;51.974;20.868;2023-02-28T02:50:16;-4.80;1.00
38938;DHT22;24727;51.974;20.868;2023-02-28T02:52:47;-4.80;1.00
38938;DHT22;24727;51.974;20.868;2023-02-28T02:55:18;-4.80;1.00
38938;DHT22;24727;51.974;20.868;2023-02-28T02:57:50;-4.90;1.00
38938;DHT22;24727;51.974;20.868;2023-02-28T03:00:20;-4.90;1.00
38938;DHT22;24727;51.974;20.868;2023-02-28T03:02:49;-5.00;1.00
38938;DHT22;24727;51.974;20.868;2023-02-28T03:05:25;-5.00;1.00
38938;DHT22;24727;51.974;20.868;2023-02-28T03:07:51;-5.10;1.00
38938;DHT22;24727;51.974;20.868;2023-02-28T03:10:41;-5.10;1.00
38938;DHT22;24727;51.974;20.868;2023-02-28T03:16:32;-5.10;1.00
38938;DHT22;24727;51.974;20.868;2023-02-28T03:19:11;-5.20;1.00
38938;DHT22;24727;51.974;20.868;2023-02-28T03:21:50;-5.20;1.00
38938;DHT22;24727;51.974;20.868;2023-02-28T03:25:28;-5.20;1.00
38938;DHT22;24727;51.974;20.868;2023-02-28T03:35:27;-5.20;1.00
38938;DHT22;24727;51.974;20.868;2023-02-28T03:38:11;-5.20;1.00
38938;DHT22;24727;51.974;20.868;2023-02-28T03:40:43;-5.20;1.00
38938;DHT22;24727;51.974;20.868;2023-02-28T03:43:14;-5.20;1.00
38938;DHT22;24727;51.974;20.868;2023-02-28T03:45:45;-5.20;1.00
38938;DHT22;24727;51.974;20.868;2023-02-28T03:48:18;-5.30;1.00
38938;DHT22;24727;51.974;20.868;2023-02-28T03:50:48;-5.20;1.00
38938;DHT22;24727;51.974;20.868;2023-02-28T03:56:37;-5.20;1.00
38938;DHT22;24727;51.974;20.868;2023-02-28T03:59:04;-5.30;1.00
38938;DHT22;24727;51.974;20.868;2023-02-28T04:01:45;-5.30;1.00
38938;DHT22;24727;51.974;20.868;2023-02-28T04:04:13;-5.30;1.00
38938;DHT22;24727;51.974;20.868;2023-02-28T04:06:40;-5.30;1.00
38938;DHT22;24727;51.974;20.868;2023-02-28T04:09:08;-5.30;1.00
38938;DHT22;24727;51.974;20.868;2023-02-28T04:11:37;-5.30;1.00
38938;DHT22;24727;51.974;20.868;2023-02-28T04:14:05;-5.30;1.00
38938;DHT22;24727;51.974;20.868;2023-02-28T04:16:33;-5.30;1.30
38938;DHT22;24727;51.974;20.868;2023-02-28T04:18:59;-5.30;1.90
38938;DHT22;24727;51.974;20.868;2023-02-28T04:21:37;-5.30;2.20
38938;DHT22;24727;51.974;20.868;2023-02-28T04:24:06;-5.30;2.80
38938;DHT22;24727;51.974;20.868;2023-02-28T04:26:34;-5.40;3.40
38938;DHT22;24727;51.974;20.868;2023-02-28T04:29:03;-5.40;4.80
38938;DHT22;24727;51.974;20.868;2023-02-28T04:31:29;-5.40;9.60
38938;DHT22;24727;51.974;20.868;2023-02-28T04:33:56;-5.40;12.80
38938;DHT22;24727;51.974;20.868;2023-02-28T04:36:23;-5.40;15.20
38938;DHT22;24727;51.974;20.868;2023-02-28T04:38:51;-5.40;17.90
38938;DHT22;24727;51.974;20.868;2023-02-28T04:41:18;-5.50;17.30
38938;DHT22;24727;51.974;20.868;2023-02-28T04:43:45;-5.60;16.50
38938;DHT22;24727;51.974;20.868;2023-02-28T04:46:12;-5.60;20.10
38938;DHT22;24727;51.974;20.868;2023-02-28T04:48:39;-5.60;27.70
38938;DHT22;24727;51.974;20.868;2023-02-28T04:51:08;-5.60;32.10
38938;DHT22;24727;51.974;20.868;2023-02-28T04:53:36;-5.60;35.20
38938;DHT22;24727;51.974;20.868;2023-02-28T04:56:05;-5.60;35.20
38938;DHT22;24727;51.974;20.868;2023-02-28T04:58:34;-5.60;33.80
38938;DHT22;24727;51.974;20.868;2023-02-28T05:01:05;-5.60;32.80
38938;DHT22;24727;51.974;20.868;2023-02-28T05:03:40;-5.60;33.20
38938;DHT22;24727;51.974;20.868;2023-02-28T05:06:07;-5.60;32.70
38938;DHT22;24727;51.974;20.868;2023-02-28T05:08:34;-5.60;32.40
38938;DHT22;24727;51.974;20.868;2023-02-28T05:11:01;-5.70;29.70
38938;DHT22;24727;51.974;20.868;2023-02-28T05:13:28;-5.70;29.10
38938;DHT22;24727;51.974;20.868;2023-02-28T05:15:55;-5.70;29.00
38938;DHT22;24727;51.974;20.868;2023-02-28T05:18:21;-5.70;28.10
38938;DHT22;24727;51.974;20.868;2023-02-28T05:20:48;-5.70;25.20
38938;DHT22;24727;51.974;20.868;2023-02-28T05:23:15;-5.80;24.00
38938;DHT22;24727;51.974;20.868;2023-02-28T05:25:43;-5.70;27.30
38938;DHT22;24727;51.974;20.868;2023-02-28T05:28:09;-5.70;27.80
38938;DHT22;24727;51.974;20.868;2023-02-28T05:30:37;-5.80;27.00
38938;DHT22;24727;51.974;20.868;2023-02-28T05:33:04;-5.80;28.10
38938;DHT22;24727;51.974;20.868;2023-02-28T05:35:30;-5.80;30.00
38938;DHT22;24727;51.974;20.868;2023-02-28T05:38:02;-5.80;30.70
38938;DHT22;24727;51.974;20.868;2023-02-28T05:40:30;-5.80;31.50
38938;DHT22;24727;51.974;20.868;2023-02-28T05:42:55;-5.80;31.00
38938;DHT22;24727;51.974;20.868;2023-02-28T05:45:21;-5.80;29.50
38938;DHT22;24727;51.974;20.868;2023-02-28T05:47:47;-5.80;27.70
38938;DHT22;24727;51.974;20.868;2023-02-28T05:50:13;-5.80;25.90
38938;DHT22;24727;51.974;20.868;2023-02-28T05:52:40;-5.70;25.00
38938;DHT22;24727;51.974;20.868;2023-02-28T05:55:06;-5.70;26.10
38938;DHT22;24727;51.974;20.868;2023-02-28T05:57:33;-5.70;17.20
38938;DHT22;24727;51.974;20.868;2023-02-28T06:00:02;-5.80;16.10
38938;DHT22;24727;51.974;20.868;2023-02-28T06:02:29;-5.70;18.50
38938;DHT22;24727;51.974;20.868;2023-02-28T06:04:55;-5.60;20.00
38938;DHT22;24727;51.974;20.868;2023-02-28T06:07:21;-5.60;19.40
38938;DHT22;24727;51.974;20.868;2023-02-28T06:09:48;-5.50;20.70
38938;DHT22;24727;51.974;20.868;2023-02-28T06:12:14;-5.50;20.50
38938;DHT22;24727;51.974;20.868;2023-02-28T06:14:41;-5.50;20.10
38938;DHT22;24727;51.974;20.868;2023-02-28T06:17:08;-5.40;22.90
38938;DHT22;24727;51.974;20.868;2023-02-28T06:19:37;-5.40;23.50
38938;DHT22;24727;51.974;20.868;2023-02-28T06:22:04;-5.30;26.50
38938;DHT22;24727;51.974;20.868;2023-02-28T06:24:30;-5.20;30.90
38938;DHT22;24727;51.974;20.868;2023-02-28T06:26:57;-5.20;32.70
38938;DHT22;24727;51.974;20.868;2023-02-28T06:29:25;-5.10;36.50
38938;DHT22;24727;51.974;20.868;2023-02-28T06:31:52;-5.00;38.70
38938;DHT22;24727;51.974;20.868;2023-02-28T06:34:18;-5.00;39.50
38938;DHT22;24727;51.974;20.868;2023-02-28T06:36:44;-4.90;40.90
38938;DHT22;24727;51.974;20.868;2023-02-28T06:39:11;-4.80;45.30
38938;DHT22;24727;51.974;20.868;2023-02-28T06:41:37;-4.70;47.20
38938;DHT22;24727;51.974;20.868;2023-02-28T06:44:13;-4.60;48.20
38938;DHT22;24727;51.974;20.868;2023-02-28T06:46:44;-4.40;48.50
38938;DHT22;24727;51.974;20.868;2023-02-28T06:49:12;-4.30;47.50
38938;DHT22;24727;51.974;20.868;2023-02-28T06:51:40;-4.20;44.80
38938;DHT22;24727;51.974;20.868;2023-02-28T06:54:07;-4.10;42.10
38938;DHT22;24727;51.974;20.868;2023-02-28T06:56:36;-4.00;36.50
38938;DHT22;24727;51.974;20.868;2023-02-28T06:59:03;-3.90;27.10
38938;DHT22;24727;51.974;20.868;2023-02-28T07:01:30;-3.80;17.90
38938;DHT22;24727;51.974;20.868;2023-02-28T07:03:58;-3.60;4.50
38938;DHT22;24727;51.974;20.868;2023-02-28T07:06:26;-3.50;1.00
38938;DHT22;24727;51.974;20.868;2023-02-28T07:08:53;-3.30;1.00
38938;DHT22;24727;51.974;20.868;2023-02-28T07:11:22;-3.20;1.00
38938;DHT22;24727;51.974;20.868;2023-02-28T07:13:54;-3.00;1.00
38938;DHT22;24727;51.974;20.868;2023-02-28T07:16:21;-2.90;1.00
38938;DHT22;24727;51.974;20.868;2023-02-28T07:18:48;-2.80;1.00
38938;DHT22;24727;51.974;20.868;2023-02-28T07:21:15;-2.70;1.00
38938;DHT22;24727;51.974;20.868;2023-02-28T07:23:41;-2.60;1.00
38938;DHT22;24727;51.974;20.868;2023-02-28T07:26:14;-2.40;1.00
38938;DHT22;24727;51.974;20.868;2023-02-28T07:28:46;-2.30;1.00
38938;DHT22;24727;51.974;20.868;2023-02-28T07:31:15;-2.20;1.00
38938;DHT22;24727;51.974;20.868;2023-02-28T07:33:42;-2.00;1.00
38938;DHT22;24727;51.974;20.868;2023-02-28T07:36:15;-1.90;1.00
38938;DHT22;24727;51.974;20.868;2023-02-28T07:38:44;-1.70;1.00
38938;DHT22;24727;51.974;20.868;2023-02-28T07:41:11;-1.60;1.00
38938;DHT22;24727;51.974;20.868;2023-02-28T07:43:38;-1.50;1.00
38938;DHT22;24727;51.974;20.868;2023-02-28T07:46:06;-1.40;1.00
38938;DHT22;24727;51.974;20.868;2023-02-28T07:48:32;-1.30;1.00
38938;DHT22;24727;51.974;20.868;2023-02-28T07:50:59;-1.20;1.00
38938;DHT22;24727;51.974;20.868;2023-02-28T07:53:27;-1.10;1.00
38938;DHT22;24727;51.974;20.868;2023-02-28T07:56:01;-1.10;1.00
38938;DHT22;24727;51.974;20.868;2023-02-28T07:58:29;-1.00;1.00
38938;DHT22;24727;51.974;20.868;2023-02-28T08:00:55;-0.90;1.00
38938;DHT22;24727;51.974;20.868;2023-02-28T08:03:23;-0.70;1.00
38938;DHT22;24727;51.974;20.868;2023-02-28T08:05:50;-0.60;1.00
38938;DHT22;24727;51.974;20.868;2023-02-28T08:08:19;-0.70;1.00
38938;DHT22;24727;51.974;20.868;2023-02-28T08:10:44;-0.60;1.00
38938;DHT22;24727;51.974;20.868;2023-02-28T08:13:13;-0.50;1.00
38938;DHT22;24727;51.974;20.868;2023-02-28T08:15:41;-0.50;1.00
38938;DHT22;24727;51.974;20.868;2023-02-28T08:18:09;-0.40;1.00
38938;DHT22;24727;51.974;20.868;2023-02-28T08:20:35;-0.30;1.00
38938;DHT22;24727;51.974;20.868;2023-02-28T08:23:01;-0.30;1.00
38938;DHT22;24727;51.974;20.868;2023-02-28T08:25:27;-0.20;1.00
38938;DHT22;24727;51.974;20.868;2023-02-28T08:27:52;-0.10;1.00
38938;DHT22;24727;51.974;20.868;2023-02-28T08:30:18;0.00;1.00
38938;DHT22;24727;51.974;20.868;2023-02-28T08:32:44;0.10;1.00
38938;DHT22;24727;51.974;20.868;2023-02-28T08:35:11;0.20;1.00
38938;DHT22;24727;51.974;20.868;2023-02-28T08:37:38;0.30;1.00
38938;DHT22;24727;51.974;20.868;2023-02-28T08:40:05;0.20;1.00
38938;DHT22;24727;51.974;20.868;2023-02-28T08:42:32;0.20;1.00
38938;DHT22;24727;51.974;20.868;2023-02-28T08:44:59;0.40;1.00
38938;DHT22;24727;51.974;20.868;2023-02-28T08:47:25;0.40;1.00
38938;DHT22;24727;51.974;20.868;2023-02-28T08:49:51;0.30;1.00
38938;DHT22;24727;51.974;20.868;2023-02-28T08:52:17;0.30;1.00
38938;DHT22;24727;51.974;20.868;2023-02-28T08:54:43;0.40;1.00
38938;DHT22;24727;51.974;20.868;2023-02-28T08:57:11;0.40;1.00
38938;DHT22;24727;51.974;20.868;2023-02-28T08:59:37;0.50;1.00
38938;DHT22;24727;51.974;20.868;2023-02-28T09:02:03;0.80;1.00
38938;DHT22;24727;51.974;20.868;2023-02-28T09:04:29;1.10;1.00
38938;DHT22;24727;51.974;20.868;2023-02-28T09:06:56;0.90;1.00
38938;DHT22;24727;51.974;20.868;2023-02-28T09:09:22;0.90;1.00
38938;DHT22;24727;51.974;20.868;2023-02-28T09:11:48;1.00;1.00
38938;DHT22;24727;51.974;20.868;2023-02-28T09:14:15;1.00;1.00
38938;DHT22;24727;51.974;20.868;2023-02-28T09:16:43;0.90;1.00
38938;DHT22;24727;51.974;20.868;2023-02-28T09:19:13;0.60;1.00
38938;DHT22;24727;51.974;20.868;2023-02-28T09:21:39;0.80;1.00
38938;DHT22;24727;51.974;20.868;2023-02-28T09:24:06;1.20;1.00
38938;DHT22;24727;51.974;20.868;2023-02-28T09:26:32;1.40;1.00
38938;DHT22;24727;51.974;20.868;2023-02-28T09:29:00;1.30;1.00
38938;DHT22;24727;51.974;20.868;2023-02-28T09:31:29;1.40;1.00
38938;DHT22;24727;51.974;20.868;2023-02-28T09:33:58;1.30;1.00
38938;DHT22;24727;51.974;20.868;2023-02-28T09:36:26;1.00;1.00
38938;DHT22;24727;51.974;20.868;2023-02-28T09:38:54;1.20;1.00
38938;DHT22;24727;51.974;20.868;2023-02-28T09:41:23;1.20;1.00
38938;DHT22;24727;51.974;20.868;2023-02-28T09:43:55;1.60;1.00
38938;DHT22;24727;51.974;20.868;2023-02-28T09:46:42;2.00;1.00
38938;DHT22;24727;51.974;20.868;2023-02-28T09:49:17;2.20;1.00
38938;DHT22;24727;51.974;20.868;2023-02-28T09:51:57;2.50;1.00
38938;DHT22;24727;51.974;20.868;2023-02-28T09:54:28;2.40;1.00
38938;DHT22;24727;51.974;20.868;2023-02-28T09:57:10;2.00;1.00
38938;DHT22;24727;51.974;20.868;2023-02-28T10:00:07;2.40;1.00
38938;DHT22;24727;51.974;20.868;2023-02-28T10:02:54;1.80;1.00
38938;DHT22;24727;51.974;20.868;2023-02-28T10:06:08;1.20;1.00
38938;DHT22;24727;51.974;20.868;2023-02-28T10:09:03;0.90;1.00
38938;DHT22;24727;51.974;20.868;2023-02-28T10:11:28;1.00;1.00
38938;DHT22;24727;51.974;20.868;2023-02-28T10:14:18;1.10;1.00
38938;DHT22;24727;51.974;20.868;2023-02-28T10:17:02;1.40;1.00
38938;DHT22;24727;51.974;20.868;2023-02-28T10:19:44;1.90;1.00
38938;DHT22;24727;51.974;20.868;2023-02-28T10:22:29;2.10;1.00
38938;DHT22;24727;51.974;20.868;2023-02-28T10:25:00;2.60;1.00
38938;DHT22;24727;51.974;20.868;2023-02-28T10:27:31;3.10;1.00
38938;DHT22;24727;51.974;20.868;2023-02-28T10:29:59;2.80;1.00
38938;DHT22;24727;51.974;20.868;2023-02-28T10:32:27;2.60;1.00
38938;DHT22;24727;51.974;20.868;2023-02-28T10:37:55;2.60;1.00
38938;DHT22;24727;51.974;20.868;2023-02-28T10:45:56;2.50;1.00
38938;DHT22;24727;51.974;20.868;2023-02-28T10:49:00;2.60;1.00
38938;DHT22;24727;51.974;20.868;2023-02-28T10:51:19;2.90;1.00
38938;DHT22;24727;51.974;20.868;2023-02-28T10:53:52;3.00;1.00
38938;DHT22;24727;51.974;20.868;2023-02-28T10:56:26;3.00;1.00
38938;DHT22;24727;51.974;20.868;2023-02-28T10:59:08;3.00;1.00
38938;DHT22;24727;51.974;20.868;2023-02-28T11:01:46;2.50;1.00
38938;DHT22;24727;51.974;20.868;2023-02-28T11:07:22;1.90;1.00
38938;DHT22;24727;51.974;20.868;2023-02-28T11:09:51;1.80;1.00
38938;DHT22;24727;51.974;20.868;2023-02-28T11:12:39;1.90;1.00
38938;DHT22;24727;51.974;20.868;2023-02-28T11:15:29;1.70;1.00
38938;DHT22;24727;51.974;20.868;2023-02-28T11:17:59;1.80;1.00
38938;DHT22;24727;51.974;20.868;2023-02-28T11:20:30;1.80;1.00
38938;DHT22;24727;51.974;20.868;2023-02-28T11:23:00;2.00;1.00
38938;DHT22;24727;51.974;20.868;2023-02-28T11:25:33;2.30;1.00
38938;DHT22;24727;51.974;20.868;2023-02-28T11:28:32;2.30;1.00
38938;DHT22;24727;51.974;20.868;2023-02-28T11:33:48;2.10;1.00
38938;DHT22;24727;51.974;20.868;2023-02-28T11:36:17;2.40;1.00
38938;DHT22;24727;51.974;20.868;2023-02-28T11:38:43;2.80;1.00
38938;DHT22;24727;51.974;20.868;2023-02-28T11:41:28;2.20;1.00
38938;DHT22;24727;51.974;20.868;2023-02-28T11:44:14;2.20;1.00
38938;DHT22;24727;51.974;20.868;2023-02-28T11:46:53;2.10;1.00
38938;DHT22;24727;51.974;20.868;2023-02-28T11:52:47;2.70;1.00
38938;DHT22;24727;51.974;20.868;2023-02-28T11:55:05;3.20;1.00
38938;DHT22;24727;51.974;20.868;2023-02-28T11:57:52;3.60;1.00
38938;DHT22;24727;51.974;20.868;2023-02-28T12:03:43;3.10;1.00
38938;DHT22;24727;51.974;20.868;2023-02-28T12:09:20;3.00;1.00
38938;DHT22;24727;51.974;20.868;2023-02-28T12:23:41;3.40;1.00
38938;DHT22;24727;51.974;20.868;2023-02-28T12:26:31;3.20;1.00
38938;DHT22;24727;51.974;20.868;2023-02-28T12:29:30;3.60;1.00
38938;DHT22;24727;51.974;20.868;2023-02-28T12:32:22;3.90;1.00
38938;DHT22;24727;51.974;20.868;2023-02-28T12:35:06;4.00;1.00
38938;DHT22;24727;51.974;20.868;2023-02-28T12:37:51;3.70;1.00
38938;DHT22;24727;51.974;20.868;2023-02-28T12:40:32;3.10;1.00
38938;DHT22;24727;51.974;20.868;2023-02-28T12:43:05;3.00;1.00
38938;DHT22;24727;51.974;20.868;2023-02-28T12:46:51;2.70;1.00
38938;DHT22;24727;51.974;20.868;2023-02-28T12:49:06;2.90;1.00
38938;DHT22;24727;51.974;20.868;2023-02-28T12:51:35;3.50;1.00
38938;DHT22;24727;51.974;20.868;2023-02-28T12:55:12;3.50;1.00
38938;DHT22;24727;51.974;20.868;2023-02-28T13:02:41;3.50;1.00
38938;DHT22;24727;51.974;20.868;2023-02-28T13:07:51;4.10;1.00
38938;DHT22;24727;51.974;20.868;2023-02-28T13:10:20;3.90;1.00
38938;DHT22;24727;51.974;20.868;2023-02-28T13:12:51;3.60;1.00
38938;DHT22;24727;51.974;20.868;2023-02-28T13:15:27;4.10;1.00
38938;DHT22;24727;51.974;20.868;2023-02-28T13:18:01;3.60;1.00
38938;DHT22;24727;51.974;20.868;2023-02-28T13:20:34;4.00;1.00
38938;DHT22;24727;51.974;20.868;2023-02-28T13:23:01;3.50;1.00
38938;DHT22;24727;51.974;20.868;2023-02-28T13:28:09;3.90;1.00
38938;DHT22;24727;51.974;20.868;2023-02-28T13:34:04;4.00;1.00
38938;DHT22;24727;51.974;20.868;2023-02-28T13:36:28;4.10;1.00
38938;DHT22;24727;51.974;20.868;2023-02-28T13:39:01;4.00;1.00
38938;DHT22;24727;51.974;20.868;2023-02-28T13:52:15;4.10;1.00
38938;DHT22;24727;51.974;20.868;2023-02-28T14:03:32;3.10;1.00
38938;DHT22;24727;51.974;20.868;2023-02-28T14:06:31;3.20;1.00
38938;DHT22;24727;51.974;20.868;2023-02-28T14:11:43;3.90;1.00
38938;DHT22;24727;51.974;20.868;2023-02-28T14:17:06;3.70;1.00
38938;DHT22;24727;51.974;20.868;2023-02-28T14:19:37;3.90;1.00
38938;DHT22;24727;51.974;20.868;2023-02-28T14:38:55;3.80;1.00
38938;DHT22;24727;51.974;20.868;2023-02-28T14:41:31;3.70;1.00
38938;DHT22;24727;51.974;20.868;2023-02-28T14:44:02;3.60;1.00
38938;DHT22;24727;51.974;20.868;2023-02-28T14:46:39;3.60;1.00
38938;DHT22;24727;51.974;20.868;2023-02-28T14:49:12;3.40;1.00
38938;DHT22;24727;51.974;20.868;2023-02-28T14:51:39;3.30;1.00
38938;DHT22;24727;51.974;20.868;2023-02-28T14:54:06;3.10;1.00
38938;DHT22;24727;51.974;20.868;2023-02-28T14:56:39;3.00;1.00
38938;DHT22;24727;51.974;20.868;2023-02-28T14:59:34;3.10;1.00
38938;DHT22;24727;51.974;20.868;2023-02-28T15:02:22;3.00;1.00
38938;DHT22;24727;51.974;20.868;2023-02-28T15:07:41;3.10;1.00
38938;DHT22;24727;51.974;20.868;2023-02-28T15:12:42;3.10;1.00
38938;DHT22;24727;51.974;20.868;2023-02-28T15:15:17;3.00;1.00
38938;DHT22;24727;51.974;20.868;2023-02-28T15:17:49;3.10;1.00
38938;DHT22;24727;51.974;20.868;2023-02-28T15:20:17;2.80;1.00
38938;DHT22;24727;51.974;20.868;2023-02-28T15:22:46;2.70;1.00
38938;DHT22;24727;51.974;20.868;2023-02-28T15:25:18;2.70;1.00
38938;DHT22;24727;51.974;20.868;2023-02-28T15:27:48;2.70;1.00
38938;DHT22;24727;51.974;20.868;2023-02-28T15:30:20;2.50;1.00
38938;DHT22;24727;51.974;20.868;2023-02-28T15:33:21;2.70;1.00
38938;DHT22;24727;51.974;20.868;2023-02-28T15:35:49;2.80;1.00
38938;DHT22;24727;51.974;20.868;2023-02-28T15:38:25;2.70;1.00
38938;DHT22;24727;51.974;20.868;2023-02-28T15:40:58;2.60;1.00
38938;DHT22;24727;51.974;20.868;2023-02-28T15:46:03;2.70;1.00
38938;DHT22;24727;51.974;20.868;2023-02-28T15:48:45;2.60;1.00
38938;DHT22;24727;51.974;20.868;2023-02-28T15:51:18;2.30;1.00
38938;DHT22;24727;51.974;20.868;2023-02-28T15:56:31;2.00;1.00
38938;DHT22;24727;51.974;20.868;2023-02-28T15:59:01;2.00;1.00
38938;DHT22;24727;51.974;20.868;2023-02-28T16:01:38;1.90;1.00
38938;DHT22;24727;51.974;20.868;2023-02-28T16:04:12;1.90;1.00
38938;DHT22;24727;51.974;20.868;2023-02-28T16:09:26;1.80;1.00
38938;DHT22;24727;51.974;20.868;2023-02-28T16:11:56;1.80;1.00
38938;DHT22;24727;51.974;20.868;2023-02-28T16:14:29;1.80;1.00
38938;DHT22;24727;51.974;20.868;2023-02-28T16:17:10;1.90;1.00
38938;DHT22;24727;51.974;20.868;2023-02-28T16:19:41;1.90;1.00
38938;DHT22;24727;51.974;20.868;2023-02-28T16:22:09;1.90;1.00
38938;DHT22;24727;51.974;20.868;2023-02-28T16:24:41;1.90;1.00
38938;DHT22;24727;51.974;20.868;2023-02-28T16:27:16;1.80;1.00
38938;DHT22;24727;51.974;20.868;2023-02-28T16:29:49;1.70;1.00
38938;DHT22;24727;51.974;20.868;2023-02-28T16:32:16;1.60;1.00
38938;DHT22;24727;51.974;20.868;2023-02-28T16:34:43;1.60;1.00
38938;DHT22;24727;51.974;20.868;2023-02-28T16:37:12;1.50;1.00
38938;DHT22;24727;51.974;20.868;2023-02-28T16:39:41;1.50;1.00
38938;DHT22;24727;51.974;20.868;2023-02-28T16:42:24;1.60;1.00
38938;DHT22;24727;51.974;20.868;2023-02-28T16:44:52;1.70;1.00
38938;DHT22;24727;51.974;20.868;2023-02-28T16:47:19;1.70;1.00
38938;DHT22;24727;51.974;20.868;2023-02-28T16:49:46;1.60;1.00
38938;DHT22;24727;51.974;20.868;2023-02-28T16:52:13;1.60;1.00
38938;DHT22;24727;51.974;20.868;2023-02-28T16:54:41;1.50;1.00
38938;DHT22;24727;51.974;20.868;2023-02-28T16:57:22;1.50;1.00
38938;DHT22;24727;51.974;20.868;2023-02-28T16:59:51;1.40;1.00
38938;DHT22;24727;51.974;20.868;2023-02-28T17:02:17;1.30;1.00
38938;DHT22;24727;51.974;20.868;2023-02-28T17:04:45;1.30;1.00
38938;DHT22;24727;51.974;20.868;2023-02-28T17:07:16;1.10;1.00
38938;DHT22;24727;51.974;20.868;2023-02-28T17:09:44;0.90;1.00
38938;DHT22;24727;51.974;20.868;2023-02-28T17:12:11;0.60;1.00
38938;DHT22;24727;51.974;20.868;2023-02-28T17:14:38;0.60;1.00
38938;DHT22;24727;51.974;20.868;2023-02-28T17:17:05;0.60;1.00
38938;DHT22;24727;51.974;20.868;2023-02-28T17:19:32;0.50;1.00
38938;DHT22;24727;51.974;20.868;2023-02-28T17:21:59;0.50;1.00
38938;DHT22;24727;51.974;20.868;2023-02-28T17:24:26;0.60;1.00
38938;DHT22;24727;51.974;20.868;2023-02-28T17:26:52;0.60;1.00
38938;DHT22;24727;51.974;20.868;2023-02-28T17:29:21;0.60;1.00
38938;DHT22;24727;51.974;20.868;2023-02-28T17:31:47;0.60;1.00
38938;DHT22;24727;51.974;20.868;2023-02-28T17:34:15;0.50;1.00
38938;DHT22;24727;51.974;20.868;2023-02-28T17:36:49;0.50;1.00
38938;DHT22;24727;51.974;20.868;2023-02-28T17:39:18;0.40;1.00
38938;DHT22;24727;51.974;20.868;2023-02-28T17:41:51;0.40;1.00
38938;DHT22;24727;51.974;20.868;2023-02-28T17:44:20;0.30;1.00
38938;DHT22;24727;51.974;20.868;2023-02-28T17:46:48;0.30;1.00
38938;DHT22;24727;51.974;20.868;2023-02-28T17:49:16;0.30;1.00
38938;DHT22;24727;51.974;20.868;2023-02-28T17:51:43;0.30;1.00
38938;DHT22;24727;51.974;20.868;2023-02-28T17:54:09;0.20;1.00
38938;DHT22;24727;51.974;20.868;2023-02-28T17:56:36;-0.10;1.00
38938;DHT22;24727;51.974;20.868;2023-02-28T17:59:03;-0.30;1.00
38938;DHT22;24727;51.974;20.868;2023-02-28T18:01:29;-0.50;1.00
38938;DHT22;24727;51.974;20.868;2023-02-28T18:03:56;-0.50;1.00
38938;DHT22;24727;51.974;20.868;2023-02-28T18:09:03;-0.70;1.00
38938;DHT22;24727;51.974;20.868;2023-02-28T18:11:30;-0.70;1.00
38938;DHT22;24727;51.974;20.868;2023-02-28T18:14:07;-0.90;1.00
38938;DHT22;24727;51.974;20.868;2023-02-28T18:16:34;-1.00;1.00
38938;DHT22;24727;51.974;20.868;2023-02-28T18:19:00;-0.90;1.00